Time;durP1;ratioP1;P1;durP2;ratioP2;P2;SDS_P1;SDS_P2;PMS_P1;PMS_P2;Temp;Humidity;BMP_temperature;BMP_pressure;BME280_temperature;BME280_humidity;BME280_pressure;Samples;Min_cycle;Max_cycle;Signal;HPM_P1;HPM_P2
2023/02/21 02:14:27;;;;;;;39.45;17.10;;;8.00;99.90;;;;;;4984715;28;20047;-85
2023/02/21 02:16:55;;;;;;;51.85;26.40;;;8.00;99.90;;;;;;4994829;28;20053;-84
2023/02/21 02:19:32;;;;;;;40.58;18.63;;;8.00;99.90;;;;;;5002473;28;20121;-84
2023/02/21 02:22:13;;;;;;;33.97;15.07;;;7.90;99.90;;;;;;4986289;28;20549;-84
2023/02/21 02:24:51;;;;;;;44.28;22.30;;;8.00;99.90;;;;;;4979568;28;20061;-84
2023/02/21 02:27:41;;;;;;;42.22;16.80;;;8.00;99.90;;;;;;5007957;28;20406;-84
2023/02/21 02:30:45;;;;;;;34.03;12.02;;;7.90;99.90;;;;;;5017935;28;20038;-83
2023/02/21 02:33:41;;;;;;;48.00;21.70;;;8.00;99.90;;;;;;4958117;28;20109;-84
2023/02/21 02:36:14;;;;;;;41.35;19.30;;;7.90;99.90;;;;;;5006359;28;20069;-84
2023/02/21 02:38:52;;;;;;;49.25;25.27;;;8.00;99.90;;;;;;5005374;28;20054;-83
2023/02/21 02:41:28;;;;;;;48.15;23.17;;;8.00;99.90;;;;;;5009136;28;20049;-82
2023/02/21 02:43:54;;;;;;;;;;;8.10;99.90;;;;;;4996259;28;20021;-83
2023/02/21 02:46:27;;;;;;;41.17;18.70;;;7.90;99.90;;;;;;5003721;28;19917;-83
2023/02/21 02:48:59;;;;;;;44.85;20.55;;;7.90;99.90;;;;;;4983826;28;20084;-83
2023/02/21 02:51:25;;;;;;;44.53;21.88;;;7.90;99.90;;;;;;4979762;28;20030;-84
2023/02/21 02:53:50;;;;;;;40.80;20.77;;;8.00;99.90;;;;;;4981140;28;20312;-82
2023/02/21 02:56:16;;;;;;;44.67;21.55;;;8.00;99.90;;;;;;4996235;28;20045;-83
2023/02/21 02:58:48;;;;;;;40.58;19.88;;;7.90;99.90;;;;;;4986918;28;20038;-83
2023/02/21 03:01:24;;;;;;;45.35;22.83;;;7.90;99.90;;;;;;4972447;28;20038;-83
2023/02/21 03:04:05;;;;;;;42.20;20.50;;;8.00;99.90;;;;;;5001116;28;20049;-85
2023/02/21 03:06:46;;;;;;;41.10;16.48;;;8.00;99.90;;;;;;5017172;28;20041;-83
2023/02/21 03:09:20;;;;;;;33.90;17.63;;;7.90;99.90;;;;;;4991153;28;20034;-83
2023/02/21 03:11:52;;;;;;;45.95;24.50;;;7.90;99.90;;;;;;4997168;28;20508;-83
2023/02/21 03:14:18;;;;;;;42.67;23.25;;;7.90;99.90;;;;;;4987269;28;20030;-84
2023/02/21 03:16:55;;;;;;;44.95;25.17;;;7.90;99.90;;;;;;4993474;28;20037;-84
2023/02/21 03:19:24;;;;;;;47.58;24.40;;;7.90;99.90;;;;;;5015516;28;20034;-83
2023/02/21 03:21:54;;;;;;;38.10;18.38;;;7.90;99.90;;;;;;4983766;28;20046;-85
2023/02/21 03:24:20;;;;;;;39.30;21.85;;;7.90;99.90;;;;;;4999788;28;20224;-84
2023/02/21 03:26:46;;;;;;;39.45;19.95;;;7.90;99.90;;;;;;4991369;28;20050;-85
2023/02/21 03:29:12;;;;;;;35.33;18.30;;;7.80;99.90;;;;;;4981612;28;20608;-85
2023/02/21 03:31:44;;;;;;;40.03;21.73;;;7.90;99.90;;;;;;4998115;28;20116;-85
2023/02/21 03:34:09;;;;;;;37.42;18.63;;;7.90;99.90;;;;;;4994498;28;20114;-84
2023/02/21 03:36:36;;;;;;;42.53;20.58;;;7.90;99.90;;;;;;4981253;28;20521;-83
2023/02/21 03:39:03;;;;;;;39.40;20.48;;;7.90;99.90;;;;;;4303446;28;10000283;-83
2023/02/21 03:41:29;;;;;;;37.45;19.48;;;7.90;99.90;;;;;;5012566;28;20046;-85
2023/02/21 03:43:54;;;;;;;38.60;21.13;;;7.90;99.90;;;;;;4997463;28;20032;-85
2023/02/21 03:46:23;;;;;;;22.63;11.98;;;7.90;99.90;;;;;;5010516;28;20038;-84
2023/02/21 03:48:48;;;;;;;21.63;10.88;;;7.80;99.90;;;;;;5016547;28;20144;-83
2023/02/21 03:51:14;;;;;;;30.88;14.07;;;7.90;99.90;;;;;;5016637;28;20177;-83
2023/02/21 03:53:40;;;;;;;39.50;19.77;;;7.80;99.90;;;;;;5014885;28;20030;-82
2023/02/21 03:56:09;;;;;;;39.40;23.25;;;7.90;99.90;;;;;;4999873;28;20140;-82
2023/02/21 03:58:34;;;;;;;39.40;21.25;;;7.90;99.90;;;;;;5016198;28;20038;-82
2023/02/21 04:01:00;;;;;;;23.00;10.82;;;7.90;99.90;;;;;;4980903;28;20133;-82
2023/02/21 04:03:25;;;;;;;39.92;18.92;;;7.90;99.90;;;;;;5010882;28;20084;-82
2023/02/21 04:05:53;;;;;;;36.28;20.15;;;8.10;99.90;;;;;;5018286;28;20032;-83
2023/02/21 04:08:19;;;;;;;38.03;20.33;;;7.90;99.90;;;;;;5002310;28;20478;-83
2023/02/21 04:10:45;;;;;;;45.42;23.35;;;7.90;99.90;;;;;;5012842;28;20118;-82
2023/02/21 04:13:10;;;;;;;36.70;21.38;;;7.70;99.90;;;;;;5000381;28;20038;-82
2023/02/21 04:15:39;;;;;;;33.22;15.40;;;7.80;99.90;;;;;;5004364;28;20083;-82
2023/02/21 04:18:04;;;;;;;37.58;19.73;;;7.90;99.90;;;;;;4995136;28;20041;-82
2023/02/21 04:20:30;;;;;;;37.05;19.75;;;7.90;99.90;;;;;;5007596;28;20100;-82
2023/02/21 04:23:02;;;;;;;36.95;19.88;;;7.90;99.90;;;;;;4996253;28;20057;-83
2023/02/21 04:25:27;;;;;;;37.47;20.83;;;7.90;99.90;;;;;;4991877;28;20553;-82
2023/02/21 04:27:53;;;;;;;40.25;20.88;;;8.10;99.90;;;;;;4979516;28;20057;-82
2023/02/21 04:30:22;;;;;;;36.95;18.85;;;7.90;99.90;;;;;;4987663;28;20038;-82
2023/02/21 04:32:50;;;;;;;37.15;19.65;;;7.90;99.90;;;;;;4989576;28;20034;-83
2023/02/21 04:35:16;;;;;;;34.22;16.30;;;7.80;99.90;;;;;;4971997;28;20034;-83
2023/02/21 04:37:43;;;;;;;41.83;21.75;;;8.10;99.90;;;;;;4986155;28;20568;-83
2023/02/21 04:40:10;;;;;;;36.38;20.83;;;7.90;99.90;;;;;;4994953;28;20069;-83
2023/02/21 04:42:36;;;;;;;41.58;21.50;;;7.80;99.90;;;;;;4974946;28;20045;-83
2023/02/21 04:45:02;;;;;;;36.22;20.30;;;7.90;99.90;;;;;;4984368;28;20084;-82
2023/02/21 04:47:28;;;;;;;39.58;19.77;;;7.90;99.90;;;;;;4986134;28;20037;-82
2023/02/21 04:49:53;;;;;;;31.80;15.73;;;7.90;99.90;;;;;;4962194;28;20117;-82
2023/02/21 04:52:19;;;;;;;32.88;14.77;;;7.90;99.90;;;;;;4972529;28;20034;-82
2023/02/21 04:54:46;;;;;;;41.60;20.98;;;7.80;99.90;;;;;;4993612;28;20034;-83
2023/02/21 04:57:14;;;;;;;26.65;12.60;;;8.00;99.90;;;;;;4991677;28;20124;-83
2023/02/21 04:59:39;;;;;;;25.88;11.85;;;7.80;99.90;;;;;;4977057;28;20044;-83
2023/02/21 05:02:08;;;;;;;37.03;21.08;;;7.80;99.90;;;;;;5000290;28;20418;-83
2023/02/21 05:04:38;;;;;;;45.60;23.13;;;7.80;99.90;;;;;;4992790;28;20473;-83
2023/02/21 05:07:03;;;;;;;40.22;19.70;;;7.80;99.90;;;;;;4985715;28;20026;-83
2023/02/21 05:09:29;;;;;;;46.80;24.42;;;7.80;99.90;;;;;;4956510;28;20128;-82
2023/02/21 05:11:55;;;;;;;37.80;18.35;;;7.80;99.90;;;;;;4997602;28;20064;-83
2023/02/21 05:14:24;;;;;;;39.78;17.23;;;7.80;99.90;;;;;;5002306;28;20088;-83
2023/02/21 05:16:50;;;;;;;27.70;13.52;;;7.80;99.90;;;;;;5010097;28;20110;-83
2023/02/21 05:19:31;;;;;;;41.17;17.33;;;7.80;99.90;;;;;;5014160;28;20041;-84
2023/02/21 05:21:58;;;;;;;42.72;20.65;;;7.80;99.90;;;;;;4968394;28;20041;-83
2023/02/21 05:24:26;;;;;;;39.22;17.58;;;7.90;99.90;;;;;;5001542;28;20034;-83
2023/02/21 05:26:53;;;;;;;26.10;12.75;;;8.10;99.90;;;;;;4961338;28;20064;-83
2023/02/21 05:29:19;;;;;;;43.47;20.83;;;7.60;99.90;;;;;;4965897;28;20371;-84
2023/02/21 05:31:46;;;;;;;50.08;23.50;;;7.80;99.90;;;;;;4988128;28;20062;-84
2023/02/21 05:34:12;;;;;;;48.10;21.80;;;7.80;99.90;;;;;;4978362;28;20034;-84
2023/02/21 05:36:38;;;;;;;41.50;20.00;;;7.80;99.90;;;;;;4975855;28;20456;-82
2023/02/21 05:39:04;;;;;;;42.65;18.80;;;8.10;99.90;;;;;;4978655;28;20034;-83
2023/02/21 05:41:29;;;;;;;45.42;18.95;;;7.80;99.90;;;;;;4993872;28;20034;-82
2023/02/21 05:43:55;;;;;;;48.70;22.00;;;7.80;99.90;;;;;;4987518;28;20033;-82
2023/02/21 05:46:25;;;;;;;33.08;14.90;;;7.80;99.90;;;;;;5000264;28;20077;-84
2023/02/21 05:48:51;;;;;;;59.47;22.52;;;7.80;99.90;;;;;;4992909;28;20094;-84
2023/02/21 05:51:19;;;;;;;48.60;24.92;;;7.80;99.90;;;;;;5004845;28;20390;-86
2023/02/21 05:53:45;;;;;;;45.83;21.40;;;7.80;99.90;;;;;;4983712;28;20113;-83
2023/02/21 05:56:11;;;;;;;60.38;27.05;;;7.80;99.90;;;;;;4981585;28;20065;-83
2023/02/21 05:58:39;;;;;;;28.60;11.63;;;7.80;99.90;;;;;;4990227;28;20034;-82
2023/02/21 06:01:05;;;;;;;52.78;23.40;;;7.90;99.90;;;;;;4969676;28;20601;-83
2023/02/21 06:03:31;;;;;;;55.05;26.10;;;7.80;99.90;;;;;;4989705;28;20038;-84
2023/02/21 06:05:57;;;;;;;63.53;28.08;;;7.80;99.90;;;;;;4978598;28;20367;-83
2023/02/21 06:08:25;;;;;;;54.25;23.67;;;7.80;99.90;;;;;;4984349;28;20045;-84
2023/02/21 06:10:51;;;;;;;48.88;19.38;;;7.80;99.90;;;;;;4983568;28;20072;-83
2023/02/21 06:13:19;;;;;;;63.30;25.15;;;7.80;99.90;;;;;;4984136;28;20030;-84
2023/02/21 06:15:44;;;;;;;62.15;25.35;;;7.80;99.90;;;;;;4975971;28;20137;-83
2023/02/21 06:18:15;;;;;;;52.67;21.63;;;7.80;99.90;;;;;;4984905;28;20136;-84
2023/02/21 06:20:40;;;;;;;57.83;26.27;;;7.80;99.90;;;;;;4982203;28;20033;-84
2023/02/21 06:23:06;;;;;;;59.80;25.70;;;7.90;99.90;;;;;;5000592;28;20579;-85
2023/02/21 06:25:32;;;;;;;53.42;21.15;;;7.80;99.90;;;;;;4999137;28;20038;-84
2023/02/21 06:27:58;;;;;;;67.00;28.38;;;7.80;99.90;;;;;;4981510;28;20057;-84
2023/02/21 06:30:24;;;;;;;38.45;15.85;;;7.50;99.90;;;;;;4990392;28;20049;-83
2023/02/21 06:32:50;;;;;;;49.60;22.42;;;7.80;99.90;;;;;;4997824;28;20037;-83
2023/02/21 06:35:16;;;;;;;58.75;25.60;;;7.80;99.90;;;;;;4972649;28;20510;-84
2023/02/21 06:37:42;;;;;;;50.28;20.42;;;7.80;99.90;;;;;;4976525;28;20061;-83
2023/02/21 06:40:08;;;;;;;53.40;23.42;;;7.80;99.90;;;;;;4989851;28;20045;-83
2023/02/21 06:42:33;;;;;;;54.58;22.60;;;7.80;99.90;;;;;;5000543;28;20430;-83
2023/02/21 06:44:59;;;;;;;53.35;24.23;;;7.80;99.90;;;;;;4979661;28;20038;-82
2023/02/21 06:47:27;;;;;;;55.08;23.88;;;7.80;99.90;;;;;;4973513;28;20162;-83
2023/02/21 06:49:55;;;;;;;56.30;25.88;;;7.80;99.90;;;;;;4985522;28;20037;-84
2023/02/21 06:52:21;;;;;;;57.60;24.05;;;8.00;99.90;;;;;;4972150;28;20545;-83
2023/02/21 06:54:50;;;;;;;56.53;22.30;;;7.80;99.90;;;;;;4967030;28;20177;-84
2023/02/21 06:57:16;;;;;;;57.85;23.55;;;7.80;99.90;;;;;;4960112;28;20034;-83
2023/02/21 06:59:42;;;;;;;73.32;30.23;;;7.80;99.90;;;;;;4977689;28;20040;-83
2023/02/21 07:02:18;;;;;;;57.83;25.50;;;7.90;99.90;;;;;;4988674;28;20517;-84
2023/02/21 07:04:47;;;;;;;57.70;25.50;;;7.90;99.90;;;;;;4972756;28;20030;-83
2023/02/21 07:07:12;;;;;;;63.15;28.90;;;7.90;99.90;;;;;;4977452;28;20367;-83
2023/02/21 07:09:41;;;;;;;39.20;13.50;;;7.90;99.90;;;;;;4310722;28;10000570;-84
2023/02/21 07:12:07;;;;;;;56.50;22.35;;;7.90;99.90;;;;;;4988468;28;20038;-83
2023/02/21 07:14:33;;;;;;;54.80;24.42;;;7.80;99.90;;;;;;4971245;28;20181;-84
2023/02/21 07:17:00;;;;;;;65.35;28.30;;;8.00;99.90;;;;;;4981901;28;20038;-84
2023/02/21 07:19:26;;;;;;;36.67;13.77;;;7.80;99.90;;;;;;4990311;28;20038;-84
2023/02/21 07:21:52;;;;;;;55.60;24.98;;;8.20;99.90;;;;;;4992525;28;20156;-84
2023/02/21 07:24:19;;;;;;;54.40;25.35;;;7.80;99.90;;;;;;4967576;28;20093;-84
2023/02/21 07:26:47;;;;;;;35.90;16.48;;;7.90;99.90;;;;;;4983110;28;20034;-84
2023/02/21 07:29:23;;;;;;;;;;;;;;;;;;;;;
2023/02/21 07:31:48;;;;;;;56.70;26.20;;;7.80;99.90;;;;;;4993845;28;20465;-83
2023/02/21 07:34:21;;;;;;;57.78;23.77;;;7.50;99.90;;;;;;4993550;28;20482;-83
2023/02/21 07:36:49;;;;;;;44.20;18.25;;;7.90;99.90;;;;;;5001396;28;20037;-82
2023/02/21 07:39:15;;;;;;;65.20;29.33;;;7.80;99.90;;;;;;4987582;28;20544;-83
2023/02/21 07:41:43;;;;;;;39.10;17.92;;;7.80;99.90;;;;;;4970633;28;20043;-83
2023/02/21 07:44:09;;;;;;;54.13;23.20;;;7.80;99.90;;;;;;4972606;28;20060;-83
2023/02/21 07:46:35;;;;;;;60.42;25.55;;;7.80;99.90;;;;;;4974570;28;20034;-82
2023/02/21 07:49:03;;;;;;;53.83;22.67;;;7.80;99.90;;;;;;4980943;28;20037;-83
2023/02/21 07:51:30;;;;;;;53.22;24.75;;;7.80;99.90;;;;;;4948669;28;20425;-82
2023/02/21 07:53:56;;;;;;;53.97;22.95;;;7.80;99.90;;;;;;4982870;28;20034;-83
2023/02/21 07:56:22;;;;;;;32.53;14.57;;;7.80;99.90;;;;;;4997979;28;20129;-82
2023/02/21 07:58:50;;;;;;;30.77;15.13;;;7.90;99.90;;;;;;4975976;28;20041;-82
2023/02/21 08:01:16;;;;;;;44.53;17.52;;;7.90;99.90;;;;;;4991925;28;20030;-83
2023/02/21 08:03:41;;;;;;;50.20;23.65;;;8.50;99.90;;;;;;4978586;28;20041;-83
2023/02/21 08:06:10;;;;;;;50.15;21.80;;;7.80;99.90;;;;;;4994229;28;20030;-83
2023/02/21 08:08:37;;;;;;;44.72;17.17;;;8.20;99.90;;;;;;4996865;28;20030;-84
2023/02/21 08:11:03;;;;;;;47.92;21.00;;;7.90;99.90;;;;;;4984031;28;20037;-83
2023/02/21 08:13:28;;;;;;;54.58;24.13;;;7.90;99.90;;;;;;4991585;28;20026;-84
2023/02/21 08:15:57;;;;;;;54.80;22.05;;;8.10;99.90;;;;;;4991368;28;20071;-84
2023/02/21 08:18:25;;;;;;;50.17;19.45;;;8.10;99.90;;;;;;4980303;28;20061;-83
2023/02/21 08:21:01;;;;;;;43.60;18.63;;;7.90;99.90;;;;;;4951340;28;20542;-83
2023/02/21 08:23:29;;;;;;;27.33;10.27;;;7.90;99.90;;;;;;4994868;28;20116;-84
2023/02/21 08:25:58;;;;;;;50.17;22.02;;;7.90;99.90;;;;;;4985463;28;20493;-84
2023/02/21 08:28:26;;;;;;;47.03;20.17;;;8.40;99.90;;;;;;4969410;28;20038;-83
2023/02/21 08:30:52;;;;;;;56.38;22.52;;;8.20;99.90;;;;;;4972387;28;20030;-84
2023/02/21 08:33:20;;;;;;;55.00;23.98;;;8.00;99.90;;;;;;4983912;28;20029;-84
2023/02/21 08:35:46;;;;;;;57.47;23.17;;;8.10;99.90;;;;;;4984572;28;20107;-84
2023/02/21 08:38:13;;;;;;;47.38;19.23;;;8.00;99.90;;;;;;4991214;28;20485;-83
2023/02/21 08:40:39;;;;;;;45.17;20.10;;;8.00;99.90;;;;;;4975227;28;20049;-82
2023/02/21 08:43:06;;;;;;;54.03;23.48;;;8.00;99.90;;;;;;4981241;28;20056;-83
2023/02/21 08:45:31;;;;;;;45.40;20.48;;;8.00;99.90;;;;;;4964192;28;20061;-81
2023/02/21 08:47:57;;;;;;;43.72;20.90;;;8.00;99.90;;;;;;4972712;28;20049;-82
2023/02/21 08:50:33;;;;;;;48.72;16.83;;;8.10;99.90;;;;;;4964971;28;20513;-82
2023/02/21 08:52:59;;;;;;;32.45;13.85;;;8.50;99.90;;;;;;4972148;28;20038;-82
2023/02/21 08:55:24;;;;;;;53.38;20.92;;;8.00;99.90;;;;;;4982143;28;20040;-82
2023/02/21 08:57:52;;;;;;;46.63;20.02;;;8.10;99.90;;;;;;4994771;28;20037;-82
2023/02/21 09:00:18;;;;;;;46.03;19.23;;;8.00;99.90;;;;;;4979442;28;20042;-83
2023/02/21 09:02:44;;;;;;;22.13;10.95;;;8.00;99.90;;;;;;4980818;28;20034;-83
2023/02/21 09:05:23;;;;;;;45.53;15.90;;;8.00;99.90;;;;;;4997893;28;20481;-82
2023/02/21 09:07:49;;;;;;;38.70;15.82;;;8.00;99.90;;;;;;5010579;28;20030;-83
2023/02/21 09:10:17;;;;;;;18.08;9.25;;;8.00;99.90;;;;;;4980301;28;20034;-82
2023/02/21 09:12:43;;;;;;;28.88;12.00;;;8.00;99.90;;;;;;4989306;28;20731;-83
2023/02/21 09:15:13;;;;;;;38.88;17.15;;;8.00;99.90;;;;;;4979851;28;20506;-82
2023/02/21 09:17:39;;;;;;;31.55;14.45;;;8.20;99.90;;;;;;4983597;28;20446;-82
2023/02/21 09:20:06;;;;;;;40.95;17.92;;;8.10;99.90;;;;;;4961200;28;20038;-83
2023/02/21 09:22:33;;;;;;;40.03;18.13;;;8.00;99.90;;;;;;4976403;28;20201;-83
2023/02/21 09:25:04;;;;;;;26.63;11.85;;;8.00;99.90;;;;;;4982430;28;20102;-82
2023/02/21 09:27:36;;;;;;;23.67;10.93;;;8.10;99.90;;;;;;4974854;28;20068;-83
2023/02/21 09:30:07;;;;;;;41.63;18.23;;;8.00;99.90;;;;;;4988722;28;20289;-83
2023/02/21 09:32:33;;;;;;;36.45;13.60;;;8.10;99.90;;;;;;4992055;28;20113;-83
2023/02/21 09:34:59;;;;;;;38.05;15.18;;;8.10;99.90;;;;;;5008422;28;20196;-83
2023/02/21 09:37:25;;;;;;;39.33;16.98;;;8.10;99.90;;;;;;5002945;28;20550;-83
2023/02/21 09:39:50;;;;;;;39.95;19.08;;;8.20;99.90;;;;;;4997211;28;20071;-83
2023/02/21 09:42:17;;;;;;;33.63;15.35;;;8.00;99.90;;;;;;4992837;28;20030;-83
2023/02/21 09:44:44;;;;;;;34.47;16.60;;;8.20;99.90;;;;;;4990449;28;20033;-83
2023/02/21 09:47:15;;;;;;;33.95;14.55;;;8.30;99.90;;;;;;4954305;28;20033;-84
2023/02/21 09:49:41;;;;;;;44.47;18.30;;;8.30;99.90;;;;;;4975223;28;20035;-83
2023/02/21 09:52:21;;;;;;;34.97;13.73;;;8.30;99.90;;;;;;4982051;28;20033;-82
2023/02/21 09:54:49;;;;;;;31.25;14.65;;;8.40;99.90;;;;;;4982066;28;20064;-83
2023/02/21 09:57:15;;;;;;;34.80;15.57;;;8.50;99.90;;;;;;4994561;28;20026;-84
2023/02/21 09:59:41;;;;;;;29.08;12.38;;;8.50;99.90;;;;;;4992203;28;20050;-83
2023/02/21 10:02:31;;;;;;;32.92;13.93;;;8.50;99.90;;;;;;4969256;28;20077;-83
2023/02/21 10:05:18;;;;;;;29.50;14.68;;;8.60;99.90;;;;;;5022809;28;20032;-83
2023/02/21 10:08:25;;;;;;;31.50;13.35;;;8.60;99.90;;;;;;5000757;28;20405;-83
2023/02/21 10:11:03;;;;;;;27.42;13.48;;;8.70;99.90;;;;;;4984927;28;20045;-86
2023/02/21 10:14:05;;;;;;;33.35;15.50;;;8.70;99.90;;;;;;4984185;28;20045;-83
2023/02/21 10:16:55;;;;;;;32.97;13.23;;;8.90;99.90;;;;;;4988955;28;20038;-82
2023/02/21 10:19:30;;;;;;;34.55;15.40;;;8.90;99.90;;;;;;4998377;28;20038;-83
2023/02/21 10:21:57;;;;;;;32.28;15.98;;;8.90;99.90;;;;;;4976983;28;20034;-83
2023/02/21 10:24:24;;;;;;;34.97;15.63;;;8.90;99.90;;;;;;4994130;28;20560;-83
2023/02/21 10:26:55;;;;;;;27.48;13.20;;;8.90;99.90;;;;;;4990227;28;20038;-83
2023/02/21 10:29:22;;;;;;;33.70;15.25;;;8.90;99.90;;;;;;4988173;28;20534;-83
2023/02/21 10:31:51;;;;;;;27.17;10.70;;;8.80;99.90;;;;;;4988453;28;20026;-83
2023/02/21 10:34:26;;;;;;;29.75;13.20;;;9.00;99.90;;;;;;4980830;28;20034;-82
2023/02/21 10:36:53;;;;;;;34.65;16.00;;;9.10;99.90;;;;;;4980766;28;20041;-83
2023/02/21 10:39:24;;;;;;;32.13;13.40;;;9.20;99.90;;;;;;4976163;28;20423;-83
2023/02/21 10:41:49;;;;;;;32.75;14.80;;;9.20;99.90;;;;;;4979383;28;20135;-84
2023/02/21 10:44:24;;;;;;;27.50;14.40;;;9.20;99.90;;;;;;4974708;28;20026;-84
2023/02/21 10:47:12;;;;;;;30.17;14.43;;;9.20;99.90;;;;;;4982628;28;20045;-83
2023/02/21 10:49:45;;;;;;;32.13;16.13;;;9.30;99.90;;;;;;4998923;28;20034;-83
2023/02/21 10:52:12;;;;;;;24.60;11.02;;;9.20;99.90;;;;;;5004605;28;20489;-83
2023/02/21 10:54:37;;;;;;;24.75;10.90;;;9.30;99.90;;;;;;4999303;28;20044;-83
2023/02/21 10:57:05;;;;;;;30.65;13.40;;;9.10;99.90;;;;;;4980537;28;20044;-83
2023/02/21 10:59:41;;;;;;;32.28;13.23;;;9.00;99.90;;;;;;4981209;28;20043;-84
2023/02/21 11:02:28;;;;;;;29.30;13.48;;;9.00;99.90;;;;;;4973493;28;20053;-83
2023/02/21 11:05:06;;;;;;;22.27;9.82;;;9.10;99.90;;;;;;4991089;28;20164;-83
2023/02/21 11:08:07;;;;;;;29.33;12.05;;;9.10;99.90;;;;;;4998864;28;20036;-84
2023/02/21 11:10:33;;;;;;;29.20;12.75;;;9.10;99.90;;;;;;4972270;28;20046;-84
2023/02/21 11:13:16;;;;;;;28.05;13.35;;;9.50;99.90;;;;;;4963036;28;20580;-84
2023/02/21 11:15:49;;;;;;;28.15;13.50;;;9.60;99.90;;;;;;4974669;28;20100;-84
2023/02/21 11:18:23;;;;;;;26.48;12.45;;;9.90;99.90;;;;;;4973651;28;20630;-83
2023/02/21 11:20:51;;;;;;;26.75;13.13;;;9.60;99.90;;;;;;4995302;28;20056;-83
2023/02/21 11:23:17;;;;;;;25.92;11.77;;;10.40;99.90;;;;;;4988529;28;20126;-84
2023/02/21 11:25:48;;;;;;;26.50;13.13;;;9.80;99.90;;;;;;4973900;28;20498;-84
2023/02/21 11:28:16;;;;;;;19.58;9.50;;;10.40;99.90;;;;;;4992886;28;20049;-84
2023/02/21 11:31:03;;;;;;;27.10;13.13;;;10.30;99.90;;;;;;5026544;28;20037;-85
2023/02/21 11:33:29;;;;;;;18.15;9.25;;;10.50;99.90;;;;;;5003770;28;20062;-84
2023/02/21 11:36:08;;;;;;;12.00;5.55;;;10.60;99.90;;;;;;4994463;28;20072;-84
2023/02/21 11:38:46;;;;;;;19.02;7.20;;;10.60;99.90;;;;;;4997374;28;20065;-85
2023/02/21 11:41:20;;;;;;;21.95;11.20;;;10.70;99.90;;;;;;4977672;28;20057;-85
2023/02/21 11:43:50;;;;;;;20.80;9.82;;;10.60;99.90;;;;;;4977217;28;20026;-85
2023/02/21 11:46:20;;;;;;;24.38;10.60;;;10.70;99.90;;;;;;4965474;28;20026;-85
2023/02/21 11:49:13;;;;;;;26.30;12.77;;;10.90;99.90;;;;;;4984576;28;20030;-84
2023/02/21 11:51:49;;;;;;;20.02;9.82;;;11.10;99.90;;;;;;4978066;28;20030;-85
2023/02/21 11:54:15;;;;;;;17.77;7.20;;;10.70;99.90;;;;;;4963955;28;20037;-86
2023/02/21 11:57:12;;;;;;;25.65;9.93;;;11.00;99.90;;;;;;4980642;28;20493;-85
2023/02/21 11:59:41;;;;;;;;;;;11.00;99.90;;;;;;4985845;28;20058;-85
2023/02/21 12:02:35;;;;;;;24.35;10.00;;;11.00;99.90;;;;;;4989217;28;19936;-86
2023/02/21 12:05:29;;;;;;;24.48;12.00;;;10.90;99.90;;;;;;4987307;28;20285;-85
2023/02/21 12:08:04;;;;;;;22.20;11.20;;;10.80;99.90;;;;;;4956784;28;20449;-85
2023/02/21 12:10:50;;;;;;;19.65;9.52;;;10.80;99.90;;;;;;4976435;28;20079;-85
2023/02/21 12:13:42;;;;;;;20.45;11.30;;;10.70;99.90;;;;;;5007213;28;20043;-85
2023/02/21 12:16:16;;;;;;;19.98;10.30;;;10.80;99.90;;;;;;4973451;28;20542;-84
2023/02/21 12:18:52;;;;;;;27.00;12.93;;;10.90;99.90;;;;;;4993787;28;20030;-86
2023/02/21 12:37:47;;;;;;;25.17;11.27;;;11.30;99.90;;;;;;5224521;23;20042;-83
2023/02/21 12:40:38;;;;;;;28.25;14.27;;;11.30;99.90;;;;;;5006587;28;20025;-84
2023/02/21 12:43:35;;;;;;;23.25;12.68;;;11.40;99.90;;;;;;4976407;28;20026;-84
2023/02/21 12:46:03;;;;;;;20.73;11.40;;;11.40;99.90;;;;;;4988294;28;20045;-84
2023/02/21 12:49:06;;;;;;;20.50;11.48;;;11.40;99.90;;;;;;4992554;28;20745;-82
2023/02/21 12:51:37;;;;;;;25.00;12.98;;;11.00;99.90;;;;;;4989906;28;20038;-84
2023/02/21 12:54:13;;;;;;;23.38;12.43;;;11.00;99.90;;;;;;5006018;28;20022;-85
2023/02/21 12:57:16;;;;;;;19.20;9.10;;;11.00;99.90;;;;;;4984936;28;20411;-85
2023/02/21 13:00:06;;;;;;;24.02;11.93;;;11.30;99.90;;;;;;4923161;28;20035;-83
2023/02/21 13:02:51;;;;;;;27.35;14.50;;;11.50;99.90;;;;;;5011407;28;20512;-84
2023/02/21 13:05:22;;;;;;;28.38;14.00;;;11.60;99.90;;;;;;4984519;28;20460;-84
2023/02/21 13:07:59;;;;;;;30.20;14.40;;;11.60;99.90;;;;;;4982693;28;20468;-85
2023/02/21 13:10:38;;;;;;;23.30;12.80;;;11.60;99.90;;;;;;4974607;28;20274;-84
2023/02/21 13:13:13;;;;;;;25.25;12.75;;;11.40;99.90;;;;;;4955089;28;20030;-84
2023/02/21 13:15:40;;;;;;;22.38;11.25;;;11.00;99.90;;;;;;4992395;28;20443;-84
2023/02/21 13:18:08;;;;;;;30.77;16.23;;;11.20;99.90;;;;;;4985337;28;20037;-85
2023/02/21 13:20:46;;;;;;;31.35;16.67;;;11.60;99.90;;;;;;4994544;28;20166;-84
2023/02/21 13:26:39;;;;;;;33.70;17.38;;;11.70;99.90;;;;;;5000327;28;20060;-84
2023/02/21 13:29:22;;;;;;;30.70;14.13;;;11.80;99.90;;;;;;4979854;28;20022;-85
2023/02/21 13:31:54;;;;;;;28.45;14.45;;;11.60;99.90;;;;;;4980311;28;20030;-84
2023/02/21 13:34:23;;;;;;;24.35;11.77;;;11.60;99.90;;;;;;4965628;28;20029;-85
2023/02/21 13:36:48;;;;;;;33.92;17.25;;;11.60;99.90;;;;;;4979429;28;20048;-84
2023/02/21 13:39:30;;;;;;;33.55;17.23;;;11.60;99.90;;;;;;4952501;28;20067;-84
2023/02/21 13:42:08;;;;;;;27.85;15.52;;;11.60;99.90;;;;;;4956785;28;20415;-85
2023/02/21 13:44:42;;;;;;;32.75;17.23;;;11.50;99.90;;;;;;4954492;28;20464;-84
2023/02/21 13:47:32;;;;;;;29.20;15.90;;;11.50;99.90;;;;;;4958989;28;20030;-84
2023/02/21 13:49:58;;;;;;;33.03;17.70;;;11.30;99.90;;;;;;4980558;28;20040;-84
2023/02/21 13:52:45;;;;;;;33.47;16.17;;;11.30;99.90;;;;;;4955450;28;20393;-84
2023/02/21 13:55:14;;;;;;;37.97;20.50;;;11.40;99.90;;;;;;4959291;28;20049;-84
2023/02/21 13:57:56;;;;;;;28.90;16.10;;;11.50;99.90;;;;;;5006018;28;20055;-84
2023/02/21 14:00:28;;;;;;;37.92;19.80;;;11.50;99.90;;;;;;4965146;28;20413;-83
2023/02/21 14:03:08;;;;;;;44.67;22.85;;;11.20;99.90;;;;;;4991705;28;20615;-84
2023/02/21 14:05:43;;;;;;;42.85;19.92;;;11.60;99.90;;;;;;4984280;28;20044;-84
2023/02/21 14:08:43;;;;;;;40.05;21.55;;;11.50;99.90;;;;;;4969038;28;20041;-84
2023/02/21 14:11:11;;;;;;;41.67;20.92;;;11.50;99.90;;;;;;4939686;28;20445;-83
2023/02/21 14:13:58;;;;;;;38.30;17.80;;;11.40;99.90;;;;;;4968758;28;20092;-84
2023/02/21 14:16:35;;;;;;;32.20;16.98;;;11.40;99.90;;;;;;4947040;28;20042;-85
2023/02/21 14:19:25;;;;;;;40.08;19.70;;;11.30;99.90;;;;;;4941205;28;20029;-84
2023/02/21 14:22:06;;;;;;;42.33;21.55;;;11.30;99.90;;;;;;4963941;28;20033;-85
2023/02/21 14:24:34;;;;;;;40.47;20.15;;;11.30;99.90;;;;;;4962863;28;20488;-85
2023/02/21 14:27:27;;;;;;;36.03;17.35;;;11.20;99.90;;;;;;4987366;28;20034;-84
2023/02/21 14:30:01;;;;;;;34.35;16.58;;;11.50;99.90;;;;;;4984194;28;20033;-85
2023/02/21 14:32:53;;;;;;;38.63;20.50;;;11.20;99.90;;;;;;4993462;28;20048;-85
2023/02/21 14:35:19;;;;;;;42.72;19.05;;;11.10;99.90;;;;;;5002456;28;20037;-84
2023/02/21 14:37:53;;;;;;;33.72;17.55;;;11.10;99.90;;;;;;4969292;28;20413;-85
2023/02/21 14:40:31;;;;;;;47.60;20.65;;;11.10;99.90;;;;;;4967449;28;20058;-84
2023/02/21 14:43:18;;;;;;;32.00;17.52;;;11.10;99.90;;;;;;5003685;28;20078;-85
2023/02/21 14:45:52;;;;;;;41.35;19.25;;;11.10;99.90;;;;;;4983602;28;20083;-85
2023/02/21 14:48:49;;;;;;;41.03;19.95;;;11.10;99.90;;;;;;4976199;28;20034;-85
2023/02/21 14:51:49;;;;;;;36.60;17.85;;;11.00;99.90;;;;;;4954351;28;20400;-83
2023/02/21 14:54:52;;;;;;;38.35;18.25;;;11.00;99.90;;;;;;4990008;28;20038;-84
2023/02/21 14:57:38;;;;;;;39.88;20.42;;;10.90;99.90;;;;;;4984166;28;20030;-83
2023/02/21 15:00:31;;;;;;;35.17;16.83;;;10.90;99.90;;;;;;4988625;28;20120;-85
2023/02/21 15:03:16;;;;;;;41.60;20.52;;;10.90;99.90;;;;;;4975208;28;20034;-83
2023/02/21 15:06:10;;;;;;;40.17;20.77;;;10.90;99.90;;;;;;4966106;28;20045;-84
2023/02/21 15:08:44;;;;;;;34.88;17.13;;;10.80;99.90;;;;;;4998954;28;20556;-84
2023/02/21 15:11:50;;;;;;;41.35;19.88;;;10.70;99.90;;;;;;4970448;28;20115;-84
2023/02/21 15:14:36;;;;;;;36.53;17.77;;;10.70;99.90;;;;;;4978948;28;20113;-84
2023/02/21 15:17:15;;;;;;;37.90;17.23;;;10.70;99.90;;;;;;4971946;28;20056;-84
2023/02/21 15:19:41;;;;;;;42.25;19.83;;;10.60;99.90;;;;;;4987070;28;20096;-85
2023/02/21 15:22:26;;;;;;;37.42;16.42;;;10.60;99.90;;;;;;4939305;28;20057;-85
2023/02/21 15:25:48;;;;;;;35.55;18.02;;;10.50;99.90;;;;;;4946575;28;20401;-86
2023/02/21 15:28:31;;;;;;;40.58;17.63;;;10.60;99.90;;;;;;5008434;28;20033;-85
2023/02/21 15:30:59;;;;;;;41.47;17.50;;;10.40;99.90;;;;;;4971994;28;20112;-85
2023/02/21 15:33:29;;;;;;;53.08;23.27;;;10.40;99.90;;;;;;4955981;28;20396;-85
2023/02/21 15:35:56;;;;;;;50.35;21.15;;;10.20;99.90;;;;;;5000468;28;20125;-85